createdAt,value
2018-08-13T00:01:53.217Z,9.07
2018-08-13T00:04:22.440Z,9.00
2018-08-13T00:06:51.612Z,8.67
2018-08-13T00:09:26.105Z,8.23
2018-08-13T00:11:55.306Z,8.90
2018-08-13T00:14:24.539Z,9.10
2018-08-13T00:16:53.697Z,8.57
2018-08-13T00:19:22.966Z,8.87
2018-08-13T00:21:52.141Z,8.53
2018-08-13T00:24:21.340Z,8.57
2018-08-13T00:26:50.619Z,8.63
2018-08-13T00:29:19.774Z,7.57
2018-08-13T00:31:49.018Z,7.33
2018-08-13T00:34:18.254Z,7.07
2018-08-13T00:36:47.397Z,6.83
2018-08-13T00:39:16.625Z,6.87
2018-08-13T00:41:45.781Z,7.17
2018-08-13T00:44:14.916Z,6.90
2018-08-13T00:46:44.131Z,7.00
2018-08-13T00:49:13.329Z,6.47
2018-08-13T00:51:42.570Z,6.53
2018-08-13T00:54:11.771Z,6.33
2018-08-13T00:56:40.947Z,7.00
2018-08-13T00:59:10.161Z,6.83
2018-08-13T01:01:39.372Z,7.70
2018-08-13T01:04:08.680Z,7.80
2018-08-13T01:06:37.847Z,7.70
2018-08-13T01:09:08.832Z,8.10
2018-08-13T01:11:38.035Z,8.40
2018-08-13T01:14:07.486Z,7.73
2018-08-13T01:16:36.752Z,8.30
2018-08-13T01:19:05.934Z,7.83
2018-08-13T01:21:35.100Z,8.17
2018-08-13T01:24:04.397Z,7.87
2018-08-13T01:26:33.594Z,8.43
2018-08-13T01:29:02.841Z,8.43
2018-08-13T01:31:32.237Z,9.03
2018-08-13T01:34:01.433Z,8.97
2018-08-13T01:36:30.591Z,8.90
2018-08-13T01:38:59.787Z,9.30
2018-08-13T01:41:28.991Z,9.60
2018-08-13T01:43:58.237Z,10.00
2018-08-13T01:46:27.448Z,10.60
2018-08-13T01:48:56.664Z,10.60
2018-08-13T01:51:25.861Z,10.17
2018-08-13T01:53:55.089Z,10.60
2018-08-13T01:56:24.376Z,9.73
2018-08-13T01:58:53.524Z,10.43
2018-08-13T02:01:22.880Z,10.70
2018-08-13T02:03:52.295Z,9.50
2018-08-13T02:06:21.483Z,9.47
2018-08-13T02:08:50.758Z,10.50
2018-08-13T02:11:19.963Z,10.73
2018-08-13T02:13:49.124Z,9.67
2018-08-13T02:16:18.289Z,9.87
2018-08-13T02:18:48.027Z,9.07
2018-08-13T02:21:17.316Z,11.00
2018-08-13T02:23:46.447Z,9.30
2018-08-13T02:26:16.260Z,11.10
2018-08-13T02:28:45.456Z,10.60
2018-08-13T02:31:14.708Z,10.70
2018-08-13T02:33:43.968Z,11.20
2018-08-13T02:36:13.128Z,11.50
2018-08-13T02:38:42.335Z,11.13
2018-08-13T02:41:11.515Z,11.50
2018-08-13T02:43:40.763Z,10.80
2018-08-13T02:46:10.031Z,11.77
2018-08-13T02:48:39.182Z,12.67
2018-08-13T02:51:08.416Z,13.60
2018-08-13T02:53:37.579Z,13.47
2018-08-13T02:56:06.877Z,13.17
2018-08-13T02:58:36.243Z,12.37
2018-08-13T03:01:05.480Z,14.23
2018-08-13T03:03:34.687Z,14.23
2018-08-13T03:06:04.936Z,13.87
2018-08-13T03:08:34.344Z,14.73
2018-08-13T03:11:03.473Z,15.50
2018-08-13T03:13:32.687Z,15.90
2018-08-13T03:16:01.895Z,15.33
2018-08-13T03:18:31.280Z,15.97
2018-08-13T03:21:00.467Z,15.97
2018-08-13T03:23:29.663Z,16.77
2018-08-13T03:25:58.833Z,15.73
2018-08-13T03:28:28.781Z,17.07
2018-08-13T03:30:57.972Z,17.10
2018-08-13T03:33:27.208Z,17.07
2018-08-13T03:35:56.385Z,17.80
2018-08-13T03:38:25.518Z,18.30
2018-08-13T03:40:54.667Z,19.00
2018-08-13T03:43:23.819Z,20.03
2018-08-13T03:45:53.064Z,19.63
2018-08-13T03:48:22.253Z,18.20
2018-08-13T03:50:51.419Z,19.10
2018-08-13T03:53:20.699Z,20.17
2018-08-13T03:55:49.891Z,18.63
2018-08-13T03:58:19.108Z,19.77
2018-08-13T04:00:48.305Z,20.97
2018-08-13T04:03:17.457Z,19.80
2018-08-13T04:05:46.741Z,19.80
2018-08-13T04:08:15.922Z,20.33
2018-08-13T04:10:45.224Z,19.53
2018-08-13T04:13:14.537Z,19.67
2018-08-13T04:15:43.652Z,19.80
2018-08-13T04:18:12.971Z,21.10
2018-08-13T04:20:42.198Z,23.00
2018-08-13T04:23:11.343Z,23.00
2018-08-13T04:25:40.582Z,21.20
2018-08-13T04:28:09.752Z,21.07
2018-08-13T04:30:39.017Z,22.20
2018-08-13T04:33:08.232Z,20.97
2018-08-13T04:35:37.353Z,21.40
2018-08-13T04:38:06.649Z,21.07
2018-08-13T04:40:35.841Z,19.83
2018-08-13T04:43:05.108Z,21.53
2018-08-13T04:45:34.389Z,21.13
2018-08-13T04:48:03.625Z,21.20
2018-08-13T04:50:32.953Z,20.50
2018-08-13T04:53:02.091Z,19.33
2018-08-13T04:55:31.328Z,19.07
2018-08-13T04:58:00.574Z,19.47
2018-08-13T05:00:29.808Z,19.53
2018-08-13T05:02:59.112Z,18.63
2018-08-13T05:05:28.510Z,19.80
2018-08-13T05:07:57.742Z,19.27
2018-08-13T05:10:26.930Z,18.30
2018-08-13T05:12:56.066Z,20.23
2018-08-13T05:15:25.245Z,19.53
2018-08-13T05:17:54.583Z,19.67
2018-08-13T05:20:23.735Z,19.30
2018-08-13T05:22:53.020Z,18.07
2018-08-13T05:25:22.186Z,18.23
2018-08-13T05:27:51.367Z,19.63
2018-08-13T05:30:21.442Z,16.30
2018-08-13T05:32:50.608Z,17.87
2018-08-13T05:35:19.758Z,18.77
2018-08-13T05:37:48.982Z,18.07
2018-08-13T05:40:18.201Z,21.67
2018-08-13T05:42:47.393Z,20.03
2018-08-13T05:45:16.755Z,20.10
2018-08-13T05:47:45.919Z,20.30
2018-08-13T05:50:15.097Z,21.17
2018-08-13T05:52:44.316Z,20.73
2018-08-13T05:55:13.533Z,20.50
2018-08-13T05:57:42.864Z,20.43
2018-08-13T06:00:13.358Z,20.20
2018-08-13T06:02:43.308Z,20.43
2018-08-13T06:05:13.273Z,20.73
2018-08-13T06:07:42.993Z,19.97
2018-08-13T06:10:12.928Z,20.13
2018-08-13T06:12:42.420Z,18.20
2018-08-13T06:15:12.864Z,18.43
2018-08-13T06:17:42.086Z,18.20
2018-08-13T06:20:12.627Z,17.67
2018-08-13T06:22:43.099Z,16.60
2018-08-13T06:25:13.123Z,16.80
2018-08-13T06:27:42.306Z,17.53
2018-08-13T06:30:13.820Z,17.57
2018-08-13T06:32:43.187Z,16.70
2018-08-13T06:35:13.422Z,15.60
2018-08-13T06:37:44.050Z,16.30
2018-08-13T06:40:13.660Z,16.43
2018-08-13T06:42:43.637Z,15.70
2018-08-13T06:45:12.870Z,16.57
2018-08-13T06:47:42.185Z,16.30
2018-08-13T06:50:14.953Z,16.60
2018-08-13T06:52:44.772Z,16.90
2018-08-13T06:55:14.044Z,16.37
2018-08-13T06:57:43.238Z,15.23
2018-08-13T07:00:14.051Z,14.70
2018-08-13T07:02:43.247Z,16.37
2018-08-13T07:05:12.547Z,17.10
2018-08-13T07:07:42.388Z,16.83
2018-08-13T07:10:15.619Z,16.93
2018-08-13T07:12:46.761Z,19.13
2018-08-13T07:15:16.598Z,20.50
2018-08-13T07:17:45.864Z,17.53
2018-08-13T07:20:16.848Z,19.83
2018-08-13T07:22:46.348Z,19.53
2018-08-13T07:25:15.760Z,17.83
2018-08-13T07:27:45.149Z,18.63
2018-08-13T07:30:15.032Z,20.13
2018-08-13T07:32:44.612Z,18.27
2018-08-13T07:35:13.800Z,19.23
2018-08-13T07:37:42.980Z,19.00
2018-08-13T07:40:14.180Z,18.33
2018-08-13T07:42:43.700Z,18.90
2018-08-13T07:45:13.013Z,18.57
2018-08-13T07:47:42.690Z,18.73
2018-08-13T07:50:13.445Z,19.13
2018-08-13T07:52:42.828Z,18.90
2018-08-13T07:55:12.871Z,18.33
2018-08-13T07:57:43.147Z,17.03
2018-08-13T08:00:14.371Z,17.60
2018-08-13T08:02:43.643Z,17.07
2018-08-13T08:05:12.905Z,18.63
2018-08-13T08:07:42.311Z,16.20
2018-08-13T08:10:14.704Z,19.43
2018-08-13T08:12:44.068Z,16.90
2018-08-13T08:15:17.092Z,16.03
2018-08-13T08:17:49.395Z,18.67
2018-08-13T08:20:19.252Z,16.93
2018-08-13T08:22:48.456Z,16.57
2018-08-13T08:25:19.824Z,15.43
2018-08-13T08:27:50.113Z,16.63
2018-08-13T08:30:19.400Z,15.60
2018-08-13T08:32:48.786Z,16.97
2018-08-13T08:35:18.352Z,14.50
2018-08-13T08:37:49.463Z,14.27
2018-08-13T08:40:20.225Z,14.10
2018-08-13T08:42:50.118Z,13.20
2018-08-13T08:45:22.606Z,14.80
2018-08-13T08:47:52.785Z,14.83
2018-08-13T08:50:22.829Z,15.20
2018-08-13T08:52:52.052Z,14.20
2018-08-13T08:55:21.311Z,14.83
2018-08-13T08:57:51.174Z,14.13
2018-08-13T09:00:21.812Z,14.67
2018-08-13T09:02:51.521Z,13.93
2018-08-13T09:05:20.845Z,15.47
2018-08-13T09:07:50.032Z,16.07
2018-08-13T09:10:19.277Z,15.67
2018-08-13T09:12:48.480Z,17.10
2018-08-13T09:15:18.216Z,16.87
2018-08-13T09:17:59.309Z,15.27
2018-08-13T09:20:39.915Z,15.73
2018-08-13T09:23:20.392Z,15.37
2018-08-13T09:26:00.775Z,16.00
2018-08-13T09:28:41.093Z,15.00
2018-08-13T09:31:31.747Z,15.63
2018-08-13T09:35:26.622Z,15.43
2018-08-13T09:37:56.620Z,15.93
2018-08-13T09:40:26.934Z,15.30
2018-08-13T09:42:56.397Z,15.57
2018-08-13T09:45:25.809Z,14.73
2018-08-13T09:47:55.265Z,14.10
2018-08-13T09:50:24.609Z,14.70
2018-08-13T09:52:53.801Z,14.73
2018-08-13T09:55:23.044Z,14.97
2018-08-13T09:57:52.440Z,15.17
2018-08-13T10:00:27.177Z,15.47
2018-08-13T10:02:56.324Z,14.80
2018-08-13T10:05:25.583Z,14.57
2018-08-13T10:07:54.781Z,14.53
2018-08-13T10:10:23.940Z,15.63
2018-08-13T10:12:53.685Z,14.43
2018-08-13T10:15:22.973Z,14.20
2018-08-13T10:17:52.266Z,12.73
2018-08-13T10:20:22.109Z,14.17
2018-08-13T10:22:51.357Z,13.97
2018-08-13T10:25:20.548Z,13.23
2018-08-13T10:27:49.741Z,13.67
2018-08-13T10:30:19.054Z,13.37
2018-08-13T10:32:48.234Z,11.70
2018-08-13T10:35:18.249Z,13.40
2018-08-13T10:37:47.445Z,11.97
2018-08-13T10:40:19.148Z,12.23
2018-08-13T10:42:48.748Z,11.27
2018-08-13T10:45:18.328Z,10.53
2018-08-13T10:47:47.514Z,10.07
2018-08-13T10:50:16.776Z,9.50
2018-08-13T10:52:45.911Z,9.93
2018-08-13T10:55:15.669Z,9.07
2018-08-13T10:57:44.920Z,9.23
2018-08-13T11:00:16.227Z,8.47
2018-08-13T11:02:45.891Z,9.53
2018-08-13T11:05:15.528Z,10.13
2018-08-13T11:07:44.893Z,10.70
2018-08-13T11:10:15.364Z,11.10
2018-08-13T11:12:44.588Z,11.43
2018-08-13T11:15:20.159Z,10.83
2018-08-13T11:17:49.562Z,11.30
2018-08-13T11:20:18.780Z,11.73
2018-08-13T11:22:47.978Z,11.47
2018-08-13T11:25:17.308Z,13.40
2018-08-13T11:27:46.581Z,14.40
2018-08-13T11:30:17.356Z,13.17
2018-08-13T11:32:46.545Z,12.53
2018-08-13T11:35:16.100Z,12.70
2018-08-13T11:37:45.340Z,13.20
2018-08-13T11:40:15.792Z,14.00
2018-08-13T11:42:45.055Z,13.23
2018-08-13T11:45:14.272Z,13.60
2018-08-13T11:47:43.486Z,13.27
2018-08-13T11:50:14.956Z,13.87
2018-08-13T11:52:45.724Z,15.13
2018-08-13T11:55:15.293Z,15.40
2018-08-13T11:57:44.645Z,16.17
2018-08-13T12:00:14.090Z,15.27
2018-08-13T12:02:47.862Z,16.07
2018-08-13T12:05:17.510Z,16.37
2018-08-13T12:07:46.748Z,15.63
2018-08-13T12:10:16.315Z,14.77
2018-08-13T12:12:46.148Z,13.53
2018-08-13T12:15:15.455Z,13.77
2018-08-13T12:17:44.931Z,13.30
2018-08-13T12:20:17.655Z,12.23
2018-08-13T12:22:47.132Z,12.80
2018-08-13T12:25:22.686Z,13.63
2018-08-13T12:27:52.101Z,14.50
2018-08-13T12:30:21.337Z,13.60
2018-08-13T12:32:51.240Z,12.67
2018-08-13T12:35:20.882Z,13.37
2018-08-13T12:37:50.466Z,12.93
2018-08-13T12:40:19.829Z,13.20
2018-08-13T12:42:49.124Z,12.73
2018-08-13T12:45:18.914Z,12.87
2018-08-13T12:47:48.134Z,13.37
2018-08-13T12:50:19.137Z,14.53
2018-08-13T12:52:49.385Z,14.37
2018-08-13T12:55:18.690Z,17.17
2018-08-13T12:57:48.036Z,19.67
2018-08-13T13:00:18.547Z,19.13
2018-08-13T13:02:47.789Z,20.97
2018-08-13T13:05:17.814Z,21.57
2018-08-13T13:07:47.731Z,21.83
2018-08-13T13:10:17.811Z,22.00
2018-08-13T13:12:47.354Z,21.63
2018-08-13T13:15:18.430Z,21.67
2018-08-13T13:17:47.939Z,21.00
2018-08-13T13:20:19.009Z,22.00
2018-08-13T13:22:48.684Z,20.07
2018-08-13T13:25:18.376Z,18.80
2018-08-13T13:27:47.608Z,18.90
2018-08-13T13:30:17.472Z,18.73
2018-08-13T13:32:46.901Z,18.97
2018-08-13T13:35:17.208Z,17.30
2018-08-13T13:37:46.448Z,15.80
2018-08-13T13:40:16.699Z,15.23
2018-08-13T13:42:46.144Z,13.70
2018-08-13T13:45:16.497Z,12.23
2018-08-13T13:47:46.797Z,12.90
2018-08-13T13:50:18.174Z,13.00
2018-08-13T13:52:47.629Z,13.83
2018-08-13T13:55:17.421Z,13.97
2018-08-13T13:57:46.687Z,13.87
2018-08-13T14:00:19.202Z,15.20
2018-08-13T14:02:49.639Z,13.77
2018-08-13T14:05:18.855Z,13.00
2018-08-13T14:07:48.251Z,13.50
2018-08-13T14:10:19.224Z,14.23
2018-08-13T14:12:48.560Z,12.97
2018-08-13T14:15:20.014Z,14.07
2018-08-13T14:17:49.695Z,12.93
2018-08-13T14:20:20.424Z,12.03
2018-08-13T14:22:49.868Z,10.93
2018-08-13T14:25:19.789Z,10.80
2018-08-13T14:27:48.970Z,10.33
2018-08-13T14:30:19.559Z,11.10
2018-08-13T14:32:49.078Z,11.00
2018-08-13T14:35:19.100Z,10.70
2018-08-13T14:37:48.527Z,9.53
2018-08-13T14:40:17.956Z,10.20
2018-08-13T14:42:47.300Z,10.10
2018-08-13T14:45:17.547Z,9.07
2018-08-13T14:47:48.217Z,8.67
2018-08-13T14:50:17.514Z,8.73
2018-08-13T14:52:47.762Z,7.60
2018-08-13T14:55:18.901Z,7.83
2018-08-13T14:57:48.247Z,7.67
2018-08-13T15:00:23.578Z,7.23
2018-08-13T15:02:53.658Z,7.60
2018-08-13T15:05:23.006Z,8.47
2018-08-13T15:07:52.209Z,6.67
2018-08-13T15:10:22.840Z,7.40
2018-08-13T15:12:52.724Z,7.03
2018-08-13T15:15:21.839Z,7.20
2018-08-13T15:17:51.165Z,6.47
2018-08-13T15:20:29.475Z,6.40
2018-08-13T15:22:59.321Z,5.40
2018-08-13T15:25:29.423Z,5.60
2018-08-13T15:27:59.701Z,6.07
2018-08-13T15:30:28.869Z,6.43
2018-08-13T15:32:58.139Z,7.03
2018-08-13T15:35:27.388Z,6.30
2018-08-13T15:37:56.645Z,7.53
2018-08-13T15:40:26.946Z,7.10
2018-08-13T15:42:56.437Z,9.50
2018-08-13T15:45:25.745Z,8.70
2018-08-13T15:47:55.008Z,10.70
2018-08-13T15:50:24.501Z,13.17
2018-08-13T15:52:53.934Z,13.73
2018-08-13T15:55:23.251Z,15.17
2018-08-13T15:57:52.612Z,16.10
2018-08-13T16:00:25.768Z,17.13
2018-08-13T16:02:55.577Z,17.87
2018-08-13T16:05:25.176Z,19.90
2018-08-13T16:07:54.649Z,19.23
2018-08-13T16:10:24.193Z,23.33
2018-08-13T16:12:54.992Z,20.03
2018-08-13T16:15:24.958Z,20.70
2018-08-13T16:17:54.173Z,21.43
2018-08-13T16:20:23.634Z,21.27
2018-08-13T16:22:53.929Z,23.30
2018-08-13T16:25:23.310Z,21.23
2018-08-13T16:27:52.815Z,25.20
2018-08-13T16:30:24.730Z,25.33
2018-08-13T16:32:54.332Z,23.30
2018-08-13T16:35:24.427Z,23.80
2018-08-13T16:37:53.922Z,23.80
2018-08-13T16:40:23.120Z,22.97
2018-08-13T16:42:52.967Z,22.40
2018-08-13T16:45:22.971Z,21.73
2018-08-13T16:47:52.272Z,21.67
2018-08-13T16:50:30.178Z,23.70
2018-08-13T16:53:00.136Z,24.13
2018-08-13T16:55:31.077Z,24.37
2018-08-13T16:58:01.022Z,25.77
2018-08-13T17:00:32.602Z,25.73
2018-08-13T17:03:02.432Z,27.80
2018-08-13T17:05:33.377Z,30.00
2018-08-13T17:08:02.646Z,32.87
2018-08-13T17:10:31.894Z,36.07
2018-08-13T17:13:01.041Z,37.07
2018-08-13T17:15:31.943Z,38.23
2018-08-13T17:18:03.801Z,38.77
2018-08-13T17:20:35.655Z,38.20
2018-08-13T17:23:05.219Z,39.97
2018-08-13T17:25:34.804Z,39.87
2018-08-13T17:28:04.218Z,39.33
2018-08-13T17:30:34.073Z,38.73
2018-08-13T17:33:03.736Z,38.30
2018-08-13T17:35:34.328Z,34.40
2018-08-13T17:38:05.028Z,29.43
2018-08-13T17:40:34.247Z,26.50
2018-08-13T17:43:03.677Z,24.90
2018-08-13T17:45:32.872Z,23.53
2018-08-13T17:48:02.201Z,18.73
2018-08-13T17:50:31.472Z,14.73
2018-08-13T17:53:01.160Z,13.53
2018-08-13T17:55:31.032Z,13.63
2018-08-13T17:58:00.651Z,14.07
2018-08-13T18:00:30.257Z,14.07
2018-08-13T18:02:59.859Z,14.93
2018-08-13T18:05:31.173Z,14.23
2018-08-13T18:08:00.425Z,14.27
2018-08-13T18:10:32.726Z,13.87
2018-08-13T18:13:03.680Z,14.07
2018-08-13T18:15:33.024Z,13.73
2018-08-13T18:18:02.410Z,14.00
2018-08-13T18:20:32.720Z,13.13
2018-08-13T18:23:02.228Z,13.07
2018-08-13T18:25:31.892Z,13.13
2018-08-13T18:28:01.165Z,14.00
2018-08-13T18:30:30.935Z,12.90
2018-08-13T18:33:00.564Z,12.37
2018-08-13T18:35:33.202Z,11.73
2018-08-13T18:38:02.866Z,12.33
2018-08-13T18:40:33.122Z,12.27
2018-08-13T18:43:02.351Z,12.07
2018-08-13T18:45:32.230Z,12.33
2018-08-13T18:48:01.974Z,12.30
2018-08-13T18:50:31.391Z,12.30
2018-08-13T18:53:01.070Z,12.93
2018-08-13T18:55:32.560Z,14.03
2018-08-13T18:58:01.775Z,15.10
2018-08-13T19:00:32.701Z,16.07
2018-08-13T19:03:02.340Z,16.23
2018-08-13T19:05:32.336Z,16.83
2018-08-13T19:08:01.760Z,16.80
2018-08-13T19:10:31.279Z,15.93
2018-08-13T19:13:00.901Z,14.43
2018-08-13T19:15:30.482Z,13.70
2018-08-13T19:18:00.545Z,14.40
2018-08-13T19:20:30.019Z,14.77
2018-08-13T19:22:59.847Z,13.87
2018-08-13T19:25:29.397Z,15.60
2018-08-13T19:27:58.891Z,15.33
2018-08-13T19:30:28.375Z,15.13
2018-08-13T19:32:57.706Z,15.23
2018-08-13T19:35:27.221Z,14.57
2018-08-13T19:37:57.335Z,14.40
2018-08-13T19:40:27.307Z,14.40
2018-08-13T19:42:56.599Z,14.40
2018-08-13T19:45:25.842Z,14.27
2018-08-13T19:47:55.157Z,13.97
2018-08-13T19:50:24.347Z,13.73
2018-08-13T19:52:53.518Z,14.40
2018-08-13T19:55:23.260Z,14.33
2018-08-13T19:57:52.574Z,13.83
2018-08-13T20:00:28.085Z,14.10
2018-08-13T20:02:57.613Z,13.07
2018-08-13T20:05:27.804Z,13.23
2018-08-13T20:07:57.099Z,13.60
2018-08-13T20:10:26.405Z,13.63
2018-08-13T20:12:55.699Z,12.83
2018-08-13T20:15:25.710Z,13.23
2018-08-13T20:17:54.892Z,13.10
2018-08-13T20:20:24.143Z,13.33
2018-08-13T20:22:53.324Z,13.30
2018-08-13T20:25:22.904Z,13.00
2018-08-13T20:27:52.130Z,12.90
2018-08-13T20:30:22.663Z,12.97
2018-08-13T20:32:53.001Z,14.30
2018-08-13T20:35:22.329Z,13.47
2018-08-13T20:37:51.556Z,13.07
2018-08-13T20:40:21.604Z,13.60
2018-08-13T20:42:51.196Z,14.10
2018-08-13T20:45:21.526Z,14.37
2018-08-13T20:47:50.836Z,14.53
2018-08-13T20:50:22.108Z,15.73
2018-08-13T20:52:53.376Z,15.70
2018-08-13T20:55:26.247Z,15.93
2018-08-13T20:57:55.428Z,16.70
2018-08-13T21:00:29.727Z,16.07
2018-08-13T21:02:59.069Z,15.63
2018-08-13T21:05:28.251Z,16.30
2018-08-13T21:07:57.574Z,17.13
2018-08-13T21:10:26.950Z,16.93
2018-08-13T21:12:56.452Z,17.50
2018-08-13T21:15:25.720Z,17.73
2018-08-13T21:17:55.065Z,16.63
2018-08-13T21:20:29.198Z,17.10
2018-08-13T21:22:58.399Z,16.77
2018-08-13T21:25:27.609Z,17.90
2018-08-13T21:27:56.852Z,17.63
2018-08-13T21:30:26.058Z,16.43
2018-08-13T21:32:55.278Z,16.10
2018-08-13T21:35:25.442Z,16.10
2018-08-13T21:37:54.765Z,14.87
2018-08-13T21:40:23.947Z,15.37
2018-08-13T21:42:53.206Z,15.47
2018-08-13T21:45:22.408Z,15.10
2018-08-13T21:47:51.626Z,16.20
2018-08-13T21:50:22.203Z,16.17
2018-08-13T21:52:51.923Z,16.73
2018-08-13T21:55:21.247Z,16.60
2018-08-13T21:57:50.422Z,16.43
2018-08-13T22:00:26.512Z,16.53
2018-08-13T22:02:57.256Z,16.87
2018-08-13T22:05:26.513Z,16.47
2018-08-13T22:07:55.689Z,16.80
2018-08-13T22:10:25.409Z,17.03
2018-08-13T22:12:54.633Z,17.30
2018-08-13T22:15:26.068Z,16.83
2018-08-13T22:17:56.593Z,16.70
2018-08-13T22:20:26.496Z,19.30
2018-08-13T22:22:56.461Z,17.30
2018-08-13T22:25:27.460Z,17.73
2018-08-13T22:27:56.739Z,17.80
2018-08-13T22:30:25.924Z,18.70
2018-08-13T22:32:55.183Z,19.37
2018-08-13T22:35:24.393Z,19.60
2018-08-13T22:37:53.613Z,19.93
2018-08-13T22:40:22.869Z,20.07
2018-08-13T22:42:52.141Z,20.93
2018-08-13T22:45:22.489Z,20.63
2018-08-13T22:47:51.839Z,21.17
2018-08-13T22:50:21.095Z,21.73
2018-08-13T22:52:50.317Z,22.67
2018-08-13T22:55:19.677Z,22.93
2018-08-13T22:57:49.373Z,22.30
2018-08-13T23:00:19.740Z,23.37
2018-08-13T23:02:50.648Z,22.77
2018-08-13T23:05:22.352Z,23.67
2018-08-13T23:07:51.588Z,24.47
2018-08-13T23:10:22.056Z,24.37
2018-08-13T23:12:52.230Z,23.40
2018-08-13T23:15:21.597Z,23.87
2018-08-13T23:17:51.259Z,24.23
2018-08-13T23:20:23.334Z,23.63
2018-08-13T23:22:57.614Z,23.70
2018-08-13T23:25:27.407Z,22.03
2018-08-13T23:27:57.789Z,23.67
2018-08-13T23:30:27.212Z,23.10
2018-08-13T23:32:57.220Z,23.97
2018-08-13T23:35:27.173Z,24.17
2018-08-13T23:37:56.359Z,24.93
2018-08-13T23:40:26.055Z,25.47
2018-08-13T23:42:56.027Z,24.00
2018-08-13T23:45:27.819Z,25.77
2018-08-13T23:47:57.013Z,25.83
2018-08-13T23:50:27.067Z,27.43
2018-08-13T23:52:58.738Z,25.93
2018-08-13T23:55:29.968Z,26.50
2018-08-13T23:57:59.961Z,27.60
